sensor_id;sensor_type;location;lat;lon;timestamp;pressure;altitude;pressure_sealevel;temperature;humidity
64019;BME280;66942;52.138;5.216;2023-01-28T00:02:41;103048.0;;;4.91;64.47
64019;BME280;66942;52.138;5.216;2023-01-28T00:04:17;103049.0;;;4.82;64.72
64019;BME280;66942;52.138;5.216;2023-01-28T00:06:00;103054.0;;;4.68;64.99
64019;BME280;66942;52.138;5.216;2023-01-28T00:07:38;103058.0;;;4.7;65.05
64019;BME280;66942;52.138;5.216;2023-01-28T00:10:50;103059.99999999999;;;4.72;65.39
64019;BME280;66942;52.138;5.216;2023-01-28T00:12:26;103065.00000000001;;;4.74;65.16
64019;BME280;66942;52.138;5.216;2023-01-28T00:14:04;103066.00000000001;;;4.74;65.48
64019;BME280;66942;52.138;5.216;2023-01-28T00:17:17;103058.0;;;4.91;64.47
64019;BME280;66942;52.138;5.216;2023-01-28T00:18:53;103054.0;;;4.68;65.19
64019;BME280;66942;52.138;5.216;2023-01-28T00:20:30;103057.0;;;4.83;64.47
64019;BME280;66942;52.138;5.216;2023-01-28T00:23:49;103061.99999999999;;;4.39;65.42
64019;BME280;66942;52.138;5.216;2023-01-28T00:25:26;103058.0;;;4.71;65.16
64019;BME280;66942;52.138;5.216;2023-01-28T00:27:03;103054.0;;;4.74;64.91
64019;BME280;66942;52.138;5.216;2023-01-28T00:28:39;103054.0;;;4.61;65.61
64019;BME280;66942;52.138;5.216;2023-01-28T00:31:53;103057.0;;;4.71;65.69
64019;BME280;66942;52.138;5.216;2023-01-28T00:33:31;103053.0;;;4.78;65.3
64019;BME280;66942;52.138;5.216;2023-01-28T00:35:08;103055.0;;;4.74;65.78
64019;BME280;66942;52.138;5.216;2023-01-28T00:38:20;103058.99999999999;;;4.46;66.8
64019;BME280;66942;52.138;5.216;2023-01-28T00:39:57;103050.0;;;4.7;65.64
64019;BME280;66942;52.138;5.216;2023-01-28T00:41:33;103044.0;;;4.74;65.02
64019;BME280;66942;52.138;5.216;2023-01-28T00:43:09;103046.0;;;4.8;64.78
64019;BME280;66942;52.138;5.216;2023-01-28T00:46:22;103051.0;;;4.55;65.92
64019;BME280;66942;52.138;5.216;2023-01-28T00:47:59;103051.0;;;4.38;66.47
64019;BME280;66942;52.138;5.216;2023-01-28T00:49:35;103054.0;;;4.66;65.88
64019;BME280;66942;52.138;5.216;2023-01-28T00:52:51;103054.0;;;4.41;66.23
64019;BME280;66942;52.138;5.216;2023-01-28T00:54:27;103056.0;;;4.53;66.08
64019;BME280;66942;52.138;5.216;2023-01-28T00:56:05;103053.0;;;4.74;65.37
64019;BME280;66942;52.138;5.216;2023-01-28T00:59:18;103049.0;;;4.76;65.53
64019;BME280;66942;52.138;5.216;2023-01-28T01:00:55;103054.0;;;4.49;66.23
64019;BME280;66942;52.138;5.216;2023-01-28T01:02:31;103050.0;;;4.5;66.45
64019;BME280;66942;52.138;5.216;2023-01-28T01:04:08;103051.0;;;4.41;66.85
64019;BME280;66942;52.138;5.216;2023-01-28T01:07:22;103046.0;;;4.36;67.25
64019;BME280;66942;52.138;5.216;2023-01-28T01:09:00;103047.0;;;4.24;67.02
64019;BME280;66942;52.138;5.216;2023-01-28T01:10:37;103050.0;;;4.21;67.84
64019;BME280;66942;52.138;5.216;2023-01-28T01:13:52;103044.0;;;4.25;68.16
64019;BME280;66942;52.138;5.216;2023-01-28T01:15:28;103040.00000000001;;;4.13;68.14
64019;BME280;66942;52.138;5.216;2023-01-28T01:17:04;103042.0;;;4.55;66.5
64019;BME280;66942;52.138;5.216;2023-01-28T01:20:20;103042.0;;;4.7;65.91
64019;BME280;66942;52.138;5.216;2023-01-28T01:21:57;103046.0;;;4.62;66.97
64019;BME280;66942;52.138;5.216;2023-01-28T01:23:33;103046.0;;;4.58;66.83
64019;BME280;66942;52.138;5.216;2023-01-28T01:25:11;103047.0;;;4.78;66.12
64019;BME280;66942;52.138;5.216;2023-01-28T01:28:25;103046.0;;;4.67;66.53
64019;BME280;66942;52.138;5.216;2023-01-28T01:30:01;103047.0;;;4.51;67.25
64019;BME280;66942;52.138;5.216;2023-01-28T01:31:38;103050.0;;;4.37;67.08
64019;BME280;66942;52.138;5.216;2023-01-28T01:34:52;103050.0;;;4.42;67.25
64019;BME280;66942;52.138;5.216;2023-01-28T01:36:28;103049.0;;;4.18;68.02
64019;BME280;66942;52.138;5.216;2023-01-28T01:38:05;103051.0;;;4.2;68.16
64019;BME280;66942;52.138;5.216;2023-01-28T01:39:42;103052.0;;;4.3;68.0
64019;BME280;66942;52.138;5.216;2023-01-28T01:43:00;103051.0;;;4.62;66.42
64019;BME280;66942;52.138;5.216;2023-01-28T01:44:55;103055.0;;;4.66;66.3
64019;BME280;66942;52.138;5.216;2023-01-28T01:46:35;103051.0;;;4.84;65.85
64019;BME280;66942;52.138;5.216;2023-01-28T01:48:20;103064.00000000001;;;4.39;67.66
64019;BME280;66942;52.138;5.216;2023-01-28T01:51:42;103061.99999999999;;;4.57;67.3
64019;BME280;66942;52.138;5.216;2023-01-28T01:53:22;103065.00000000001;;;4.29;68.27
64019;BME280;66942;52.138;5.216;2023-01-28T01:55:04;103072.0;;;4.37;68.03
64019;BME280;66942;52.138;5.216;2023-01-28T01:56:46;103069.0;;;4.24;68.47
64019;BME280;66942;52.138;5.216;2023-01-28T02:00:10;103066.00000000001;;;4.7;66.78
64019;BME280;66942;52.138;5.216;2023-01-28T02:01:46;103061.99999999999;;;4.62;67.24
64019;BME280;66942;52.138;5.216;2023-01-28T02:03:27;103058.0;;;4.32;68.83
64019;BME280;66942;52.138;5.216;2023-01-28T02:05:08;103064.00000000001;;;4.2;68.08
64019;BME280;66942;52.138;5.216;2023-01-28T02:08:22;103064.00000000001;;;4.07;68.7
64019;BME280;66942;52.138;5.216;2023-01-28T02:09:58;103063.00000000001;;;4.21;68.14
64019;BME280;66942;52.138;5.216;2023-01-28T02:11:35;103058.99999999999;;;4.67;66.33
64019;BME280;66942;52.138;5.216;2023-01-28T02:13:13;103058.99999999999;;;4.59;66.8
64019;BME280;66942;52.138;5.216;2023-01-28T02:22:25;103067.0;;;4.34;68.34
64019;BME280;66942;52.138;5.216;2023-01-28T02:24:23;103059.99999999999;;;4.21;68.69
64019;BME280;66942;52.138;5.216;2023-01-28T02:27:18;103064.00000000001;;;4.37;68.34
64019;BME280;66942;52.138;5.216;2023-01-28T02:29:09;103072.0;;;4.5;67.52
64019;BME280;66942;52.138;5.216;2023-01-28T02:30:53;103075.0;;;4.62;67.59
64019;BME280;66942;52.138;5.216;2023-01-28T02:32:41;103081.0;;;4.62;67.73
64019;BME280;66942;52.138;5.216;2023-01-28T02:34:27;103082.0;;;4.41;68.41
64019;BME280;66942;52.138;5.216;2023-01-28T02:36:16;103083.99999999999;;;4.63;67.08
64019;BME280;66942;52.138;5.216;2023-01-28T02:39:48;103088.00000000001;;;4.55;67.35
64019;BME280;66942;52.138;5.216;2023-01-28T02:41:33;103083.99999999999;;;4.49;67.62
64019;BME280;66942;52.138;5.216;2023-01-28T02:43:13;103081.0;;;4.66;66.35
64019;BME280;66942;52.138;5.216;2023-01-28T02:44:50;103081.0;;;4.39;68.19
64019;BME280;66942;52.138;5.216;2023-01-28T02:49:39;103090.00000000001;;;4.38;67.77
64019;BME280;66942;52.138;5.216;2023-01-28T02:51:24;103083.0;;;4.37;66.67
64019;BME280;66942;52.138;5.216;2023-01-28T02:54:11;103079.0;;;4.47;66.94
64019;BME280;66942;52.138;5.216;2023-01-28T02:55:53;103074.0;;;4.41;67.02
64019;BME280;66942;52.138;5.216;2023-01-28T02:57:49;103076.0;;;4.38;66.56
64019;BME280;66942;52.138;5.216;2023-01-28T02:59:35;103077.0;;;4.37;66.53
64019;BME280;66942;52.138;5.216;2023-01-28T03:01:21;103072.0;;;4.43;66.52
64019;BME280;66942;52.138;5.216;2023-01-28T03:04:54;103067.0;;;4.43;65.33
64019;BME280;66942;52.138;5.216;2023-01-28T03:06:40;103072.0;;;4.32;65.61
64019;BME280;66942;52.138;5.216;2023-01-28T03:09:26;103067.0;;;4.53;65.49
64019;BME280;66942;52.138;5.216;2023-01-28T03:36:55;103082.0;;;4.28;65.52
64019;BME280;66942;52.138;5.216;2023-01-28T03:38:41;103074.0;;;4.46;64.89
64019;BME280;66942;52.138;5.216;2023-01-28T03:40:18;103073.0;;;4.36;64.61
64019;BME280;66942;52.138;5.216;2023-01-28T03:41:57;103070.0;;;4.36;64.8
64019;BME280;66942;52.138;5.216;2023-01-28T03:43:35;103066.00000000001;;;4.3;64.87
64019;BME280;66942;52.138;5.216;2023-01-28T03:45:13;103070.0;;;4.53;63.42
64019;BME280;66942;52.138;5.216;2023-01-28T03:48:27;103071.0;;;4.55;64.31
64019;BME280;66942;52.138;5.216;2023-01-28T03:50:07;103069.0;;;4.53;62.54
64019;BME280;66942;52.138;5.216;2023-01-28T03:51:45;103070.0;;;4.45;63.64
64019;BME280;66942;52.138;5.216;2023-01-28T03:54:57;103069.0;;;4.41;63.15
64019;BME280;66942;52.138;5.216;2023-01-28T03:56:36;103075.0;;;4.57;61.89
64019;BME280;66942;52.138;5.216;2023-01-28T03:58:14;103079.0;;;4.34;63.0
64019;BME280;66942;52.138;5.216;2023-01-28T03:59:52;103083.99999999999;;;4.55;62.07
64019;BME280;66942;52.138;5.216;2023-01-28T04:03:17;103080.0;;;4.37;63.38
64019;BME280;66942;52.138;5.216;2023-01-28T04:04:53;103083.99999999999;;;4.47;63.2
64019;BME280;66942;52.138;5.216;2023-01-28T04:06:30;103077.0;;;4.41;63.86
64019;BME280;66942;52.138;5.216;2023-01-28T04:09:42;103075.0;;;4.49;63.0
64019;BME280;66942;52.138;5.216;2023-01-28T04:11:20;103075.0;;;4.58;62.83
64019;BME280;66942;52.138;5.216;2023-01-28T04:12:56;103084.99999999999;;;4.55;63.08
64019;BME280;66942;52.138;5.216;2023-01-28T04:14:32;103086.99999999999;;;4.61;62.77
64019;BME280;66942;52.138;5.216;2023-01-28T04:17:46;103092.0;;;4.53;62.6
64019;BME280;66942;52.138;5.216;2023-01-28T04:19:23;103092.0;;;4.49;62.2
64019;BME280;66942;52.138;5.216;2023-01-28T04:21:00;103100.0;;;4.28;62.78
64019;BME280;66942;52.138;5.216;2023-01-28T04:24:13;103097.0;;;4.37;63.65
64019;BME280;66942;52.138;5.216;2023-01-28T04:25:49;103099.0;;;4.18;63.47
64019;BME280;66942;52.138;5.216;2023-01-28T04:27:26;103106.0;;;4.41;63.66
64019;BME280;66942;52.138;5.216;2023-01-28T04:30:38;103102.0;;;4.49;62.34
64019;BME280;66942;52.138;5.216;2023-01-28T04:32:14;103113.00000000001;;;4.37;63.48
64019;BME280;66942;52.138;5.216;2023-01-28T04:33:51;103115.00000000001;;;4.26;64.11
64019;BME280;66942;52.138;5.216;2023-01-28T04:35:27;103114.00000000001;;;4.32;62.91
64019;BME280;66942;52.138;5.216;2023-01-28T04:38:39;103114.00000000001;;;4.32;63.16
64019;BME280;66942;52.138;5.216;2023-01-28T04:40:16;103114.00000000001;;;4.32;63.62
64019;BME280;66942;52.138;5.216;2023-01-28T04:41:52;103117.0;;;4.33;63.45
64019;BME280;66942;52.138;5.216;2023-01-28T04:45:06;103116.00000000001;;;4.37;63.39
64019;BME280;66942;52.138;5.216;2023-01-28T04:46:43;103108.99999999999;;;4.2;63.15
64019;BME280;66942;52.138;5.216;2023-01-28T04:48:19;103105.0;;;4.37;62.87
64019;BME280;66942;52.138;5.216;2023-01-28T04:51:31;103094.0;;;4.38;63.2
64019;BME280;66942;52.138;5.216;2023-01-28T04:53:08;103094.0;;;4.28;64.02
64019;BME280;66942;52.138;5.216;2023-01-28T04:54:45;103092.0;;;4.5;62.63
64019;BME280;66942;52.138;5.216;2023-01-28T04:56:22;103095.0;;;4.49;62.52
64019;BME280;66942;52.138;5.216;2023-01-28T04:59:34;103093.0;;;4.2;63.83
64019;BME280;66942;52.138;5.216;2023-01-28T05:01:10;103092.0;;;4.46;63.21
64019;BME280;66942;52.138;5.216;2023-01-28T05:02:46;103092.0;;;4.47;62.5
64019;BME280;66942;52.138;5.216;2023-01-28T05:05:59;103092.0;;;4.32;62.84
64019;BME280;66942;52.138;5.216;2023-01-28T05:07:35;103093.0;;;4.29;63.12
64019;BME280;66942;52.138;5.216;2023-01-28T05:09:12;103095.0;;;4.2;62.45
64019;BME280;66942;52.138;5.216;2023-01-28T05:12:24;103083.0;;;4.34;62.13
64019;BME280;66942;52.138;5.216;2023-01-28T05:14:01;103089.00000000001;;;4.26;63.55
64019;BME280;66942;52.138;5.216;2023-01-28T05:15:37;103097.0;;;4.26;63.42
64019;BME280;66942;52.138;5.216;2023-01-28T05:17:13;103095.0;;;4.28;63.62
64019;BME280;66942;52.138;5.216;2023-01-28T05:20:26;103100.0;;;4.3;63.25
64019;BME280;66942;52.138;5.216;2023-01-28T05:22:02;103096.0;;;4.45;62.86
64019;BME280;66942;52.138;5.216;2023-01-28T05:23:38;103093.0;;;4.41;63.2
64019;BME280;66942;52.138;5.216;2023-01-28T05:26:50;103089.00000000001;;;4.32;62.14
64019;BME280;66942;52.138;5.216;2023-01-28T05:28:28;103093.0;;;4.37;62.47
64019;BME280;66942;52.138;5.216;2023-01-28T05:30:07;103097.0;;;4.49;62.51
64019;BME280;66942;52.138;5.216;2023-01-28T05:33:19;103098.0;;;4.04;64.45
64019;BME280;66942;52.138;5.216;2023-01-28T05:34:55;103093.0;;;4.08;64.86
64019;BME280;66942;52.138;5.216;2023-01-28T05:36:31;103095.0;;;3.97;64.91
64019;BME280;66942;52.138;5.216;2023-01-28T05:38:07;103101.0;;;4.08;64.33
64019;BME280;66942;52.138;5.216;2023-01-28T05:41:20;103095.0;;;3.92;65.19
64019;BME280;66942;52.138;5.216;2023-01-28T05:42:56;103095.0;;;3.93;65.69
64019;BME280;66942;52.138;5.216;2023-01-28T05:44:32;103086.99999999999;;;3.98;64.47
64019;BME280;66942;52.138;5.216;2023-01-28T05:47:44;103092.0;;;3.92;65.31
64019;BME280;66942;52.138;5.216;2023-01-28T05:49:21;103092.0;;;3.81;65.6
64019;BME280;66942;52.138;5.216;2023-01-28T05:50:58;103092.0;;;4.1;64.98
64019;BME280;66942;52.138;5.216;2023-01-28T05:54:11;103093.0;;;4.33;63.34
64019;BME280;66942;52.138;5.216;2023-01-28T05:55:47;103091.00000000001;;;4.45;62.95
64019;BME280;66942;52.138;5.216;2023-01-28T05:57:24;103093.0;;;3.98;65.49
64019;BME280;66942;52.138;5.216;2023-01-28T06:00:37;103092.0;;;4.2;63.67
64019;BME280;66942;52.138;5.216;2023-01-28T06:02:13;103095.0;;;4.43;63.04
64019;BME280;66942;52.138;5.216;2023-01-28T06:03:50;103097.0;;;4.47;62.96
64019;BME280;66942;52.138;5.216;2023-01-28T06:05:26;103097.0;;;4.43;63.2
64019;BME280;66942;52.138;5.216;2023-01-28T06:08:38;103097.0;;;4.25;63.96
64019;BME280;66942;52.138;5.216;2023-01-28T06:10:17;103098.0;;;3.97;65.56
64019;BME280;66942;52.138;5.216;2023-01-28T06:11:53;103095.0;;;3.94;64.06
64019;BME280;66942;52.138;5.216;2023-01-28T06:15:06;103098.0;;;4.08;63.45
64019;BME280;66942;52.138;5.216;2023-01-28T06:16:43;103101.0;;;4.13;63.54
64019;BME280;66942;52.138;5.216;2023-01-28T06:18:19;103097.0;;;4.16;63.15
64019;BME280;66942;52.138;5.216;2023-01-28T06:21:32;103094.0;;;4.03;64.08
64019;BME280;66942;52.138;5.216;2023-01-28T06:23:09;103094.0;;;3.95;63.52
64019;BME280;66942;52.138;5.216;2023-01-28T06:24:45;103100.0;;;4.29;63.64
64019;BME280;66942;52.138;5.216;2023-01-28T06:26:21;103097.0;;;4.13;63.81
64019;BME280;66942;52.138;5.216;2023-01-28T06:29:34;103100.0;;;4.2;62.95
64019;BME280;66942;52.138;5.216;2023-01-28T06:31:11;103107.0;;;4.21;63.5
64019;BME280;66942;52.138;5.216;2023-01-28T06:32:53;103104.0;;;4.16;64.77
64019;BME280;66942;52.138;5.216;2023-01-28T06:36:06;103102.0;;;4.07;65.47
64019;BME280;66942;52.138;5.216;2023-01-28T06:37:44;103106.0;;;4.08;63.34
64019;BME280;66942;52.138;5.216;2023-01-28T06:39:20;103113.00000000001;;;3.98;63.1
64019;BME280;66942;52.138;5.216;2023-01-28T06:40:57;103117.0;;;3.84;63.27
64019;BME280;66942;52.138;5.216;2023-01-28T06:44:10;103116.00000000001;;;3.99;63.2
64019;BME280;66942;52.138;5.216;2023-01-28T06:45:47;103117.0;;;3.77;65.14
64019;BME280;66942;52.138;5.216;2023-01-28T06:47:23;103116.00000000001;;;3.92;64.75
64019;BME280;66942;52.138;5.216;2023-01-28T06:50:35;103111.99999999999;;;3.65;66.27
64019;BME280;66942;52.138;5.216;2023-01-28T06:52:11;103121.0;;;3.56;65.27
64019;BME280;66942;52.138;5.216;2023-01-28T06:53:47;103127.0;;;3.87;65.28
64019;BME280;66942;52.138;5.216;2023-01-28T06:57:00;103127.0;;;3.95;64.66
64019;BME280;66942;52.138;5.216;2023-01-28T06:58:36;103132.0;;;4.1;64.19
64019;BME280;66942;52.138;5.216;2023-01-28T07:00:15;103131.0;;;3.94;64.42
64019;BME280;66942;52.138;5.216;2023-01-28T07:01:51;103129.0;;;3.75;65.67
64019;BME280;66942;52.138;5.216;2023-01-28T07:05:04;103126.0;;;3.61;65.89
64019;BME280;66942;52.138;5.216;2023-01-28T07:06:40;103128.0;;;3.67;66.67
64019;BME280;66942;52.138;5.216;2023-01-28T07:08:17;103128.0;;;4.05;65.08
64019;BME280;66942;52.138;5.216;2023-01-28T07:11:29;103123.0;;;4.13;64.66
64019;BME280;66942;52.138;5.216;2023-01-28T07:13:05;103126.0;;;3.86;64.69
64019;BME280;66942;52.138;5.216;2023-01-28T07:14:41;103126.0;;;3.87;65.45
64019;BME280;66942;52.138;5.216;2023-01-28T07:17:53;103126.0;;;4.13;64.23
64019;BME280;66942;52.138;5.216;2023-01-28T07:19:30;103133.99999999999;;;4.07;64.66
64019;BME280;66942;52.138;5.216;2023-01-28T07:21:07;103136.99999999999;;;4.04;63.5
64019;BME280;66942;52.138;5.216;2023-01-28T07:22:43;103133.99999999999;;;3.89;64.89
64019;BME280;66942;52.138;5.216;2023-01-28T07:26:00;103139.00000000001;;;3.98;64.83
64019;BME280;66942;52.138;5.216;2023-01-28T07:27:36;103136.99999999999;;;3.75;65.62
64019;BME280;66942;52.138;5.216;2023-01-28T07:29:12;103139.00000000001;;;4.07;64.88
64019;BME280;66942;52.138;5.216;2023-01-28T07:32:26;103139.00000000001;;;4.01;65.74
64019;BME280;66942;52.138;5.216;2023-01-28T07:34:02;103140.00000000001;;;4.09;64.8
64019;BME280;66942;52.138;5.216;2023-01-28T07:35:39;103141.00000000001;;;3.92;65.08
64019;BME280;66942;52.138;5.216;2023-01-28T07:38:51;103144.0;;;4.05;64.3
64019;BME280;66942;52.138;5.216;2023-01-28T07:40:28;103146.0;;;3.97;64.44
64019;BME280;66942;52.138;5.216;2023-01-28T07:42:04;103154.0;;;4.18;64.06
64019;BME280;66942;52.138;5.216;2023-01-28T07:43:40;103153.0;;;4.17;64.92
64019;BME280;66942;52.138;5.216;2023-01-28T07:46:53;103147.0;;;4.03;65.52
64019;BME280;66942;52.138;5.216;2023-01-28T07:48:30;103155.0;;;3.93;65.94
64019;BME280;66942;52.138;5.216;2023-01-28T07:50:08;103154.0;;;4.07;64.41
64019;BME280;66942;52.138;5.216;2023-01-28T07:53:22;103153.0;;;3.85;64.45
64019;BME280;66942;52.138;5.216;2023-01-28T07:54:58;103161.99999999999;;;4.13;64.05
64019;BME280;66942;52.138;5.216;2023-01-28T07:56:34;103165.00000000001;;;4.08;64.38
64019;BME280;66942;52.138;5.216;2023-01-28T07:59:48;103158.99999999999;;;4.16;63.24
64019;BME280;66942;52.138;5.216;2023-01-28T08:01:24;103154.0;;;4.04;62.82
64019;BME280;66942;52.138;5.216;2023-01-28T08:03:02;103166.00000000001;;;4.21;61.68
64019;BME280;66942;52.138;5.216;2023-01-28T08:04:40;103156.0;;;4.16;62.8
64019;BME280;66942;52.138;5.216;2023-01-28T08:07:53;103157.0;;;4.08;63.71
64019;BME280;66942;52.138;5.216;2023-01-28T08:09:29;103154.0;;;3.93;63.97
64019;BME280;66942;52.138;5.216;2023-01-28T08:11:06;103152.0;;;3.83;64.41
64019;BME280;66942;52.138;5.216;2023-01-28T08:14:27;103156.0;;;3.92;64.0
64019;BME280;66942;52.138;5.216;2023-01-28T08:16:04;103161.99999999999;;;4.1;63.45
64019;BME280;66942;52.138;5.216;2023-01-28T08:17:41;103165.00000000001;;;4.04;64.63
64019;BME280;66942;52.138;5.216;2023-01-28T08:19:17;103167.0;;;3.96;64.5
64019;BME280;66942;52.138;5.216;2023-01-28T08:22:31;103166.00000000001;;;3.69;65.72
64019;BME280;66942;52.138;5.216;2023-01-28T08:24:07;103158.99999999999;;;4.22;63.92
64019;BME280;66942;52.138;5.216;2023-01-28T08:25:43;103165.00000000001;;;4.28;63.62
64019;BME280;66942;52.138;5.216;2023-01-28T08:28:56;103174.0;;;3.98;65.23
64019;BME280;66942;52.138;5.216;2023-01-28T08:30:33;103175.0;;;4.12;64.85
64019;BME280;66942;52.138;5.216;2023-01-28T08:32:10;103177.0;;;4.16;65.08
64019;BME280;66942;52.138;5.216;2023-01-28T08:35:22;103178.0;;;4.22;64.75
64019;BME280;66942;52.138;5.216;2023-01-28T08:36:58;103172.0;;;3.76;67.7
64019;BME280;66942;52.138;5.216;2023-01-28T08:38:34;103172.0;;;3.66;67.69
64019;BME280;66942;52.138;5.216;2023-01-28T08:40:11;103176.0;;;3.63;66.52
64019;BME280;66942;52.138;5.216;2023-01-28T08:43:24;103182.0;;;3.85;66.94
64019;BME280;66942;52.138;5.216;2023-01-28T08:45:01;103193.0;;;3.85;66.16
64019;BME280;66942;52.138;5.216;2023-01-28T08:46:37;103200.0;;;3.82;67.55
64019;BME280;66942;52.138;5.216;2023-01-28T08:49:52;103204.0;;;4.33;65.63
64019;BME280;66942;52.138;5.216;2023-01-28T08:51:28;103206.0;;;4.37;65.3
64019;BME280;66942;52.138;5.216;2023-01-28T08:53:08;103206.0;;;4.04;67.58
64019;BME280;66942;52.138;5.216;2023-01-28T08:54:45;103197.0;;;4.33;66.0
64019;BME280;66942;52.138;5.216;2023-01-28T08:58:01;103193.0;;;4.29;63.88
64019;BME280;66942;52.138;5.216;2023-01-28T08:59:44;103195.0;;;3.96;66.27
64019;BME280;66942;52.138;5.216;2023-01-28T09:01:20;103202.0;;;4.07;65.47
64019;BME280;66942;52.138;5.216;2023-01-28T09:04:32;103208.99999999999;;;4.36;64.13
64019;BME280;66942;52.138;5.216;2023-01-28T09:06:08;103204.0;;;4.45;64.1
64019;BME280;66942;52.138;5.216;2023-01-28T09:07:45;103194.0;;;4.54;62.71
64019;BME280;66942;52.138;5.216;2023-01-28T09:10:58;103192.0;;;4.34;63.43
64019;BME280;66942;52.138;5.216;2023-01-28T09:12:35;103196.0;;;4.03;64.2
64019;BME280;66942;52.138;5.216;2023-01-28T09:14:12;103203.0;;;4.42;62.97
64019;BME280;66942;52.138;5.216;2023-01-28T09:15:50;103211.99999999999;;;4.2;63.92
64019;BME280;66942;52.138;5.216;2023-01-28T09:19:02;103207.0;;;4.41;63.96
64019;BME280;66942;52.138;5.216;2023-01-28T09:20:39;103216.00000000001;;;4.45;63.9
64019;BME280;66942;52.138;5.216;2023-01-28T09:22:16;103217.0;;;4.51;63.95
64019;BME280;66942;52.138;5.216;2023-01-28T09:25:31;103222.0;;;4.68;63.74
64019;BME280;66942;52.138;5.216;2023-01-28T09:27:08;103225.0;;;4.78;64.47
64019;BME280;66942;52.138;5.216;2023-01-28T09:28:46;103217.0;;;4.95;63.43
64019;BME280;66942;52.138;5.216;2023-01-28T09:30:23;103220.0;;;5.05;62.55
64019;BME280;66942;52.138;5.216;2023-01-28T09:33:39;103225.0;;;5.04;61.42
64019;BME280;66942;52.138;5.216;2023-01-28T09:35:17;103223.0;;;5.42;61.46
64019;BME280;66942;52.138;5.216;2023-01-28T09:36:53;103219.0;;;5.81;58.8
64019;BME280;66942;52.138;5.216;2023-01-28T09:40:11;103225.0;;;5.68;59.28
64019;BME280;66942;52.138;5.216;2023-01-28T09:42:03;103230.0;;;5.94;57.71
64019;BME280;66942;52.138;5.216;2023-01-28T09:44:03;103228.0;;;5.79;57.88
64019;BME280;66942;52.138;5.216;2023-01-28T09:45:43;103219.0;;;6.25;56.49
64019;BME280;66942;52.138;5.216;2023-01-28T09:47:25;103219.0;;;5.79;58.53
64019;BME280;66942;52.138;5.216;2023-01-28T09:50:53;103218.0;;;5.93;57.71
64019;BME280;66942;52.138;5.216;2023-01-28T09:52:33;103220.0;;;6.44;55.93
64019;BME280;66942;52.138;5.216;2023-01-28T09:54:16;103228.0;;;6.58;56.19
64019;BME280;66942;52.138;5.216;2023-01-28T09:56:04;103225.0;;;6.65;54.42
64019;BME280;66942;52.138;5.216;2023-01-28T09:57:45;103220.0;;;6.62;55.21
64019;BME280;66942;52.138;5.216;2023-01-28T10:01:15;103228.0;;;6.93;53.75
64019;BME280;66942;52.138;5.216;2023-01-28T10:03:25;103232.0;;;6.62;55.64
64019;BME280;66942;52.138;5.216;2023-01-28T10:05:16;103233.0;;;6.53;55.83
64019;BME280;66942;52.138;5.216;2023-01-28T10:07:09;103240.00000000001;;;6.53;53.91
64019;BME280;66942;52.138;5.216;2023-01-28T10:09:09;103244.0;;;6.63;54.17
64019;BME280;66942;52.138;5.216;2023-01-28T10:11:15;103241.00000000001;;;6.51;54.66
64019;BME280;66942;52.138;5.216;2023-01-28T10:13:03;103233.0;;;6.18;55.9
64019;BME280;66942;52.138;5.216;2023-01-28T10:14:57;103236.99999999999;;;6.2;55.18
64019;BME280;66942;52.138;5.216;2023-01-28T10:16:42;103242.0;;;6.07;56.64
64019;BME280;66942;52.138;5.216;2023-01-28T10:20:16;103233.99999999999;;;5.78;56.43
64019;BME280;66942;52.138;5.216;2023-01-28T10:22:00;103224.0;;;5.95;56.45
64019;BME280;66942;52.138;5.216;2023-01-28T10:23:45;103226.0;;;6.08;55.32
64019;BME280;66942;52.138;5.216;2023-01-28T10:25:32;103225.0;;;5.88;56.67
64019;BME280;66942;52.138;5.216;2023-01-28T10:27:14;103216.00000000001;;;5.78;56.81
64019;BME280;66942;52.138;5.216;2023-01-28T10:30:34;103214.00000000001;;;5.81;56.87
64019;BME280;66942;52.138;5.216;2023-01-28T10:32:26;103211.99999999999;;;5.63;56.95
64019;BME280;66942;52.138;5.216;2023-01-28T10:34:04;103215.00000000001;;;5.73;56.23
64019;BME280;66942;52.138;5.216;2023-01-28T10:35:41;103219.0;;;5.68;56.07
64019;BME280;66942;52.138;5.216;2023-01-28T10:37:19;103222.0;;;5.4;56.81
64019;BME280;66942;52.138;5.216;2023-01-28T10:40:32;103215.00000000001;;;5.76;56.27
64019;BME280;66942;52.138;5.216;2023-01-28T10:42:16;103208.0;;;5.84;55.84
64019;BME280;66942;52.138;5.216;2023-01-28T10:44:02;103208.99999999999;;;5.76;56.36
64019;BME280;66942;52.138;5.216;2023-01-28T10:45:42;103211.99999999999;;;5.67;56.62
64019;BME280;66942;52.138;5.216;2023-01-28T10:49:15;103208.0;;;5.52;56.66
64019;BME280;66942;52.138;5.216;2023-01-28T10:50:55;103208.99999999999;;;5.86;56.62
64019;BME280;66942;52.138;5.216;2023-01-28T10:52:32;103204.0;;;5.85;56.93
64019;BME280;66942;52.138;5.216;2023-01-28T10:54:25;103193.0;;;5.82;56.88
64019;BME280;66942;52.138;5.216;2023-01-28T10:57:43;103194.0;;;6.23;60.16
64019;BME280;66942;52.138;5.216;2023-01-28T10:59:24;103194.0;;;6.34;55.78
64019;BME280;66942;52.138;5.216;2023-01-28T11:01:04;103189.00000000001;;;6.76;55.4
64019;BME280;66942;52.138;5.216;2023-01-28T11:02:42;103174.0;;;7.03;54.97
64019;BME280;66942;52.138;5.216;2023-01-28T11:06:00;103165.00000000001;;;7.03;54.14
64019;BME280;66942;52.138;5.216;2023-01-28T11:07:37;103154.0;;;7.48;53.85
64019;BME280;66942;52.138;5.216;2023-01-28T11:09:22;103150.0;;;7.61;54.73
64019;BME280;66942;52.138;5.216;2023-01-28T11:11:00;103150.0;;;8.01;51.29
64019;BME280;66942;52.138;5.216;2023-01-28T11:14:19;103151.0;;;8.27;50.73
64019;BME280;66942;52.138;5.216;2023-01-28T11:16:00;103138.00000000001;;;8.23;52.82
64019;BME280;66942;52.138;5.216;2023-01-28T11:17:47;103133.0;;;8.59;49.81
64019;BME280;66942;52.138;5.216;2023-01-28T11:19:30;103125.0;;;8.85;49.34
64019;BME280;66942;52.138;5.216;2023-01-28T11:22:55;103125.0;;;9.09;48.16
64019;BME280;66942;52.138;5.216;2023-01-28T11:24:33;103118.0;;;8.98;46.62
64019;BME280;66942;52.138;5.216;2023-01-28T11:26:15;103119.0;;;9.18;49.19
64019;BME280;66942;52.138;5.216;2023-01-28T11:27:54;103102.0;;;9.25;47.16